sensor_id;sensor_type;location;lat;lon;timestamp;pressure;altitude;pressure_sealevel;temperature;humidity
9035;BME280;4552;43.422;24.592;2023-06-14T00:20:59;99627.94;;;17.99;100.00
9035;BME280;4552;43.422;24.592;2023-06-14T00:23:41;99625.34;;;17.98;100.00
9035;BME280;4552;43.422;24.592;2023-06-14T00:26:08;99614.75;;;17.98;100.00
9035;BME280;4552;43.422;24.592;2023-06-14T00:28:48;99622.78;;;17.96;100.00
9035;BME280;4552;43.422;24.592;2023-06-14T00:31:17;99619.00;;;18.02;100.00
9035;BME280;4552;43.422;24.592;2023-06-14T00:33:53;99615.25;;;18.06;100.00
9035;BME280;4552;43.422;24.592;2023-06-14T00:36:36;99626.06;;;18.01;100.00
9035;BME280;4552;43.422;24.592;2023-06-14T00:39:03;99610.06;;;17.86;100.00
9035;BME280;4552;43.422;24.592;2023-06-14T00:41:31;99614.34;;;17.88;100.00
9035;BME280;4552;43.422;24.592;2023-06-14T00:43:58;99611.16;;;17.82;100.00
9035;BME280;4552;43.422;24.592;2023-06-14T00:53:37;99601.78;;;17.75;100.00
9035;BME280;4552;43.422;24.592;2023-06-14T00:56:05;99606.78;;;17.81;100.00
9035;BME280;4552;43.422;24.592;2023-06-14T00:58:45;99606.09;;;17.77;100.00
9035;BME280;4552;43.422;24.592;2023-06-14T01:40:46;99609.28;;;17.84;100.00
9035;BME280;4552;43.422;24.592;2023-06-14T01:43:18;99609.34;;;17.82;100.00
9035;BME280;4552;43.422;24.592;2023-06-14T01:46:04;99612.06;;;17.81;100.00
9035;BME280;4552;43.422;24.592;2023-06-14T01:48:49;99609.56;;;17.78;100.00
9035;BME280;4552;43.422;24.592;2023-06-14T01:51:16;99606.22;;;17.74;100.00
9035;BME280;4552;43.422;24.592;2023-06-14T01:54:01;99612.50;;;17.72;100.00
9035;BME280;4552;43.422;24.592;2023-06-14T01:56:30;99615.66;;;17.80;100.00
9035;BME280;4552;43.422;24.592;2023-06-14T01:58:58;99613.22;;;17.75;100.00
9035;BME280;4552;43.422;24.592;2023-06-14T02:07:53;99603.97;;;17.67;100.00
9035;BME280;4552;43.422;24.592;2023-06-14T02:10:20;99606.31;;;17.73;100.00
9035;BME280;4552;43.422;24.592;2023-06-14T02:12:57;99616.59;;;17.79;100.00
9035;BME280;4552;43.422;24.592;2023-06-14T02:15:47;99614.34;;;17.88;100.00
9035;BME280;4552;43.422;24.592;2023-06-14T02:18:40;99620.66;;;17.86;100.00
9035;BME280;4552;43.422;24.592;2023-06-14T02:21:11;99620.09;;;17.79;100.00
9035;BME280;4552;43.422;24.592;2023-06-14T02:23:38;99614.41;;;17.70;100.00
9035;BME280;4552;43.422;24.592;2023-06-14T02:26:07;99613.59;;;17.68;100.00
9035;BME280;4552;43.422;24.592;2023-06-14T02:28:49;99622.13;;;17.74;100.00
9035;BME280;4552;43.422;24.592;2023-06-14T03:24:02;99655.81;;;17.89;100.00
9035;BME280;4552;43.422;24.592;2023-06-14T03:26:29;99666.63;;;17.85;100.00
9035;BME280;4552;43.422;24.592;2023-06-14T03:28:58;99668.09;;;17.90;100.00
9035;BME280;4552;43.422;24.592;2023-06-14T03:31:56;99665.53;;;17.89;100.00
9035;BME280;4552;43.422;24.592;2023-06-14T03:34:50;99678.03;;;18.04;100.00
9035;BME280;4552;43.422;24.592;2023-06-14T03:37:18;99684.78;;;18.11;100.00
9035;BME280;4552;43.422;24.592;2023-06-14T03:40:01;99676.31;;;18.03;100.00
9035;BME280;4552;43.422;24.592;2023-06-14T03:42:32;99683.03;;;18.10;100.00
9035;BME280;4552;43.422;24.592;2023-06-14T03:44:59;99685.59;;;18.11;100.00
9035;BME280;4552;43.422;24.592;2023-06-14T03:47:26;99688.03;;;18.16;100.00
9035;BME280;4552;43.422;24.592;2023-06-14T03:49:53;99688.34;;;18.10;100.00
9035;BME280;4552;43.422;24.592;2023-06-14T03:52:20;99687.13;;;18.17;100.00
9035;BME280;4552;43.422;24.592;2023-06-14T03:54:50;99690.69;;;18.16;100.00
9035;BME280;4552;43.422;24.592;2023-06-14T03:57:20;99680.09;;;18.16;100.00
9035;BME280;4552;43.422;24.592;2023-06-14T04:00:07;99688.47;;;18.25;100.00
9035;BME280;4552;43.422;24.592;2023-06-14T04:02:56;99694.31;;;18.32;100.00
9035;BME280;4552;43.422;24.592;2023-06-14T04:05:23;99695.34;;;18.29;100.00
9035;BME280;4552;43.422;24.592;2023-06-14T04:08:06;99682.13;;;18.28;100.00
9035;BME280;4552;43.422;24.592;2023-06-14T04:10:34;99681.72;;;18.37;100.00
9035;BME280;4552;43.422;24.592;2023-06-14T04:13:03;99686.16;;;18.36;100.00
9035;BME280;4552;43.422;24.592;2023-06-14T04:15:32;99694.06;;;18.38;100.00
9035;BME280;4552;43.422;24.592;2023-06-14T04:17:59;99677.84;;;18.44;100.00
9035;BME280;4552;43.422;24.592;2023-06-14T04:20:38;99685.81;;;18.44;100.00
9035;BME280;4552;43.422;24.592;2023-06-14T05:32:37;99740.56;;;18.62;100.00
9035;BME280;4552;43.422;24.592;2023-06-14T05:35:05;99731.97;;;18.57;100.00
9035;BME280;4552;43.422;24.592;2023-06-14T05:37:35;99737.41;;;18.54;100.00
9035;BME280;4552;43.422;24.592;2023-06-14T05:40:03;99736.44;;;18.56;100.00
9035;BME280;4552;43.422;24.592;2023-06-14T05:42:46;99719.72;;;18.54;100.00
9035;BME280;4552;43.422;24.592;2023-06-14T05:45:14;99727.63;;;18.73;100.00
9035;BME280;4552;43.422;24.592;2023-06-14T05:47:45;99731.91;;;18.75;100.00
9035;BME280;4552;43.422;24.592;2023-06-14T05:50:13;99738.88;;;18.78;100.00
9035;BME280;4552;43.422;24.592;2023-06-14T05:52:39;99734.50;;;18.77;100.00
9035;BME280;4552;43.422;24.592;2023-06-14T05:55:07;99738.56;;;18.84;100.00
9035;BME280;4552;43.422;24.592;2023-06-14T05:57:54;99745.03;;;18.95;100.00
9035;BME280;4552;43.422;24.592;2023-06-14T06:00:23;99743.25;;;19.13;100.00
9035;BME280;4552;43.422;24.592;2023-06-14T06:03:12;99737.94;;;18.96;100.00
9035;BME280;4552;43.422;24.592;2023-06-14T06:05:45;99747.13;;;18.89;100.00
9035;BME280;4552;43.422;24.592;2023-06-14T06:08:12;99758.94;;;19.01;100.00
9035;BME280;4552;43.422;24.592;2023-06-14T06:10:39;99745.44;;;19.05;100.00
9035;BME280;4552;43.422;24.592;2023-06-14T06:13:29;99764.63;;;19.10;100.00
9035;BME280;4552;43.422;24.592;2023-06-14T06:15:57;99763.47;;;19.16;100.00
9035;BME280;4552;43.422;24.592;2023-06-14T06:18:45;99764.00;;;19.05;100.00
9035;BME280;4552;43.422;24.592;2023-06-14T06:21:12;99774.94;;;19.16;100.00
9035;BME280;4552;43.422;24.592;2023-06-14T06:24:04;99772.84;;;19.06;100.00
9035;BME280;4552;43.422;24.592;2023-06-14T06:26:31;99764.56;;;19.12;100.00
9035;BME280;4552;43.422;24.592;2023-06-14T06:28:58;99765.16;;;19.17;100.00
9035;BME280;4552;43.422;24.592;2023-06-14T06:31:25;99760.09;;;19.12;100.00
9035;BME280;4552;43.422;24.592;2023-06-14T06:33:54;99769.03;;;19.28;100.00
9035;BME280;4552;43.422;24.592;2023-06-14T06:36:21;99769.19;;;19.42;100.00
9035;BME280;4552;43.422;24.592;2023-06-14T06:38:48;99767.75;;;19.52;100.00
9035;BME280;4552;43.422;24.592;2023-06-14T06:41:27;99777.72;;;19.64;100.00
9035;BME280;4552;43.422;24.592;2023-06-14T06:43:54;99779.50;;;19.96;100.00
9035;BME280;4552;43.422;24.592;2023-06-14T07:06:58;99786.88;;;20.71;97.64
9035;BME280;4552;43.422;24.592;2023-06-14T07:09:25;99785.41;;;20.65;98.59
9035;BME280;4552;43.422;24.592;2023-06-14T07:12:07;99775.63;;;20.19;98.89
9035;BME280;4552;43.422;24.592;2023-06-14T07:14:35;99790.56;;;20.21;100.00
9035;BME280;4552;43.422;24.592;2023-06-14T07:49:33;99791.91;;;20.28;100.00
9035;BME280;4552;43.422;24.592;2023-06-14T07:52:00;99787.72;;;20.24;100.00
9035;BME280;4552;43.422;24.592;2023-06-14T07:54:45;99788.84;;;20.51;100.00
9035;BME280;4552;43.422;24.592;2023-06-14T07:57:13;99786.34;;;20.48;99.79
9035;BME280;4552;43.422;24.592;2023-06-14T07:59:42;99787.66;;;20.57;99.19
9035;BME280;4552;43.422;24.592;2023-06-14T08:56:06;99823.28;;;21.74;90.31
9035;BME280;4552;43.422;24.592;2023-06-14T08:58:39;99828.84;;;21.56;92.53
9035;BME280;4552;43.422;24.592;2023-06-14T09:01:17;99841.56;;;21.51;91.90
9035;BME280;4552;43.422;24.592;2023-06-14T09:03:52;99828.81;;;21.42;91.05
9035;BME280;4552;43.422;24.592;2023-06-14T09:06:23;99844.31;;;21.49;93.13
9035;BME280;4552;43.422;24.592;2023-06-14T09:09:03;99848.78;;;21.49;92.57
9035;BME280;4552;43.422;24.592;2023-06-14T09:11:35;99828.88;;;21.40;92.02
9035;BME280;4552;43.422;24.592;2023-06-14T09:14:08;99847.84;;;21.50;92.58
9035;BME280;4552;43.422;24.592;2023-06-14T09:36:49;99831.97;;;21.48;91.77
9035;BME280;4552;43.422;24.592;2023-06-14T09:39:49;99841.50;;;21.96;90.38
9035;BME280;4552;43.422;24.592;2023-06-14T09:42:31;99829.31;;;22.06;88.79
9035;BME280;4552;43.422;24.592;2023-06-14T09:45:02;99839.97;;;22.06;88.38
9035;BME280;4552;43.422;24.592;2023-06-14T09:54:16;99841.66;;;22.63;84.70
9035;BME280;4552;43.422;24.592;2023-06-14T09:56:45;99832.97;;;22.74;84.35
9035;BME280;4552;43.422;24.592;2023-06-14T09:59:19;99842.38;;;22.79;83.00
9035;BME280;4552;43.422;24.592;2023-06-14T10:02:07;99837.66;;;22.42;84.11
9035;BME280;4552;43.422;24.592;2023-06-14T10:04:40;99838.63;;;22.55;84.81
9035;BME280;4552;43.422;24.592;2023-06-14T10:07:40;99823.66;;;23.20;82.30
9035;BME280;4552;43.422;24.592;2023-06-14T10:10:26;99833.59;;;22.77;82.13
9035;BME280;4552;43.422;24.592;2023-06-14T10:12:53;99837.31;;;22.89;81.53
9035;BME280;4552;43.422;24.592;2023-06-14T10:15:41;99823.19;;;22.32;84.17
9035;BME280;4552;43.422;24.592;2023-06-14T10:18:16;99818.38;;;22.65;84.80
9035;BME280;4552;43.422;24.592;2023-06-14T10:20:53;99808.97;;;23.13;83.41
9035;BME280;4552;43.422;24.592;2023-06-14T10:23:23;99809.22;;;22.83;82.43
9035;BME280;4552;43.422;24.592;2023-06-14T10:25:56;99816.19;;;22.98;81.16
9035;BME280;4552;43.422;24.592;2023-06-14T10:28:26;99810.25;;;23.07;80.54
9035;BME280;4552;43.422;24.592;2023-06-14T10:31:22;99796.47;;;23.13;78.83
9035;BME280;4552;43.422;24.592;2023-06-14T10:33:56;99804.69;;;23.10;79.68
9035;BME280;4552;43.422;24.592;2023-06-14T10:36:41;99813.09;;;23.31;78.28
9035;BME280;4552;43.422;24.592;2023-06-14T10:39:24;99814.44;;;23.63;76.72
9035;BME280;4552;43.422;24.592;2023-06-14T10:41:53;99807.81;;;23.93;75.85
9035;BME280;4552;43.422;24.592;2023-06-14T10:44:42;99805.34;;;23.90;74.55
9035;BME280;4552;43.422;24.592;2023-06-14T10:47:24;99797.97;;;23.81;75.85
9035;BME280;4552;43.422;24.592;2023-06-14T10:50:27;99798.00;;;24.07;74.42
9035;BME280;4552;43.422;24.592;2023-06-14T10:52:56;99801.84;;;23.77;73.83
9035;BME280;4552;43.422;24.592;2023-06-14T10:55:23;99796.41;;;23.92;74.28
9035;BME280;4552;43.422;24.592;2023-06-14T10:57:53;99781.72;;;23.84;74.96
9035;BME280;4552;43.422;24.592;2023-06-14T11:00:23;99789.53;;;23.87;74.72
9035;BME280;4552;43.422;24.592;2023-06-14T11:16:39;99782.66;;;24.70;68.23
9035;BME280;4552;43.422;24.592;2023-06-14T11:19:06;99781.63;;;24.24;71.00
9035;BME280;4552;43.422;24.592;2023-06-14T11:21:34;99776.88;;;24.27;69.64
9035;BME280;4552;43.422;24.592;2023-06-14T11:24:20;99768.03;;;24.14;71.50
9035;BME280;4552;43.422;24.592;2023-06-14T11:26:47;99761.66;;;24.64;71.78
9035;BME280;4552;43.422;24.592;2023-06-14T11:29:16;99768.09;;;24.61;68.88
9035;BME280;4552;43.422;24.592;2023-06-14T12:06:32;99740.75;;;25.62;65.88
9035;BME280;4552;43.422;24.592;2023-06-14T12:09:15;99727.75;;;25.90;64.42
9035;BME280;4552;43.422;24.592;2023-06-14T12:11:43;99733.06;;;25.35;66.33
9035;BME280;4552;43.422;24.592;2023-06-14T12:14:10;99731.88;;;25.26;66.40
9035;BME280;4552;43.422;24.592;2023-06-14T12:16:40;99736.34;;;25.49;65.56
9035;BME280;4552;43.422;24.592;2023-06-14T12:19:17;99722.78;;;25.29;65.37
9035;BME280;4552;43.422;24.592;2023-06-14T12:22:05;99712.38;;;24.79;67.54
9035;BME280;4552;43.422;24.592;2023-06-14T12:24:33;99716.81;;;24.67;70.66
9035;BME280;4552;43.422;24.592;2023-06-14T12:27:21;99710.28;;;24.71;69.73
9035;BME280;4552;43.422;24.592;2023-06-14T12:30:09;99706.84;;;25.04;68.94
9035;BME280;4552;43.422;24.592;2023-06-14T12:32:36;99708.25;;;25.31;67.27
9035;BME280;4552;43.422;24.592;2023-06-14T12:35:03;99703.31;;;24.92;65.31
9035;BME280;4552;43.422;24.592;2023-06-14T12:37:43;99704.13;;;24.93;63.51
9035;BME280;4552;43.422;24.592;2023-06-14T12:40:11;99703.03;;;25.30;62.49
9035;BME280;4552;43.422;24.592;2023-06-14T12:42:38;99691.38;;;25.42;62.89
9035;BME280;4552;43.422;24.592;2023-06-14T12:45:32;99682.06;;;25.24;63.89
9035;BME280;4552;43.422;24.592;2023-06-14T13:23:45;99655.09;;;25.49;61.24
9035;BME280;4552;43.422;24.592;2023-06-14T13:26:26;99649.59;;;25.62;61.67
9035;BME280;4552;43.422;24.592;2023-06-14T13:28:53;99638.97;;;25.82;61.64
9035;BME280;4552;43.422;24.592;2023-06-14T13:31:21;99656.19;;;25.69;61.70
9035;BME280;4552;43.422;24.592;2023-06-14T13:33:49;99648.97;;;25.80;61.28
9035;BME280;4552;43.422;24.592;2023-06-14T13:36:18;99640.31;;;26.10;59.45
9035;BME280;4552;43.422;24.592;2023-06-14T13:38:52;99647.09;;;26.14;59.67
9035;BME280;4552;43.422;24.592;2023-06-14T13:41:25;99641.84;;;26.23;59.60
9035;BME280;4552;43.422;24.592;2023-06-14T13:44:11;99624.97;;;26.01;58.50
9035;BME280;4552;43.422;24.592;2023-06-14T14:21:49;99627.78;;;26.62;55.28
9035;BME280;4552;43.422;24.592;2023-06-14T14:24:16;99620.84;;;26.60;56.51
9035;BME280;4552;43.422;24.592;2023-06-14T14:26:43;99625.59;;;26.36;56.88
9035;BME280;4552;43.422;24.592;2023-06-14T14:29:17;99607.84;;;26.44;57.16
9035;BME280;4552;43.422;24.592;2023-06-14T14:31:48;99617.03;;;26.62;55.89
9035;BME280;4552;43.422;24.592;2023-06-14T15:16:38;99609.22;;;26.70;56.15
9035;BME280;4552;43.422;24.592;2023-06-14T15:41:27;99612.06;;;26.89;51.26
9035;BME280;4552;43.422;24.592;2023-06-14T15:43:55;99615.66;;;26.79;52.03
9035;BME280;4552;43.422;24.592;2023-06-14T15:46:22;99611.50;;;26.75;52.03
9035;BME280;4552;43.422;24.592;2023-06-14T15:51:36;99612.38;;;26.96;52.61
9035;BME280;4552;43.422;24.592;2023-06-14T15:54:03;99621.47;;;26.84;52.22
9035;BME280;4552;43.422;24.592;2023-06-14T15:56:40;99619.84;;;26.92;52.71
9035;BME280;4552;43.422;24.592;2023-06-14T15:59:07;99621.34;;;27.06;53.86
9035;BME280;4552;43.422;24.592;2023-06-14T16:01:36;99623.25;;;26.74;55.28
9035;BME280;4552;43.422;24.592;2023-06-14T16:30:51;99636.16;;;25.73;59.60
9035;BME280;4552;43.422;24.592;2023-06-14T16:33:32;99650.69;;;25.81;59.95
9035;BME280;4552;43.422;24.592;2023-06-14T16:35:59;99648.00;;;25.81;64.94
9035;BME280;4552;43.422;24.592;2023-06-14T16:38:26;99651.66;;;26.02;66.59
9035;BME280;4552;43.422;24.592;2023-06-14T16:40:53;99636.28;;;25.93;68.65
9035;BME280;4552;43.422;24.592;2023-06-14T16:43:23;99640.41;;;25.97;67.03
9035;BME280;4552;43.422;24.592;2023-06-14T16:46:28;99638.84;;;25.84;67.64
9035;BME280;4552;43.422;24.592;2023-06-14T16:48:57;99639.84;;;25.61;69.92
9035;BME280;4552;43.422;24.592;2023-06-14T16:51:24;99640.09;;;25.69;70.28
9035;BME280;4552;43.422;24.592;2023-06-14T16:54:00;99634.84;;;25.78;70.00
9035;BME280;4552;43.422;24.592;2023-06-14T16:56:29;99647.28;;;25.79;70.48
9035;BME280;4552;43.422;24.592;2023-06-14T16:59:09;99638.28;;;25.58;72.12
9035;BME280;4552;43.422;24.592;2023-06-14T17:01:38;99649.09;;;25.45;72.33
9035;BME280;4552;43.422;24.592;2023-06-14T17:04:05;99647.03;;;25.60;70.96
9035;BME280;4552;43.422;24.592;2023-06-14T17:06:32;99646.53;;;25.66;73.09
9035;BME280;4552;43.422;24.592;2023-06-14T17:09:26;99654.72;;;25.42;75.77
9035;BME280;4552;43.422;24.592;2023-06-14T17:11:57;99649.41;;;25.30;76.90
9035;BME280;4552;43.422;24.592;2023-06-14T17:14:24;99646.84;;;25.06;77.85
9035;BME280;4552;43.422;24.592;2023-06-14T17:16:53;99643.31;;;25.06;77.35
9035;BME280;4552;43.422;24.592;2023-06-14T17:19:23;99655.00;;;25.16;77.10
9035;BME280;4552;43.422;24.592;2023-06-14T17:21:50;99646.47;;;25.00;78.35
9035;BME280;4552;43.422;24.592;2023-06-14T17:24:27;99661.56;;;25.01;79.40
9035;BME280;4552;43.422;24.592;2023-06-14T17:27:12;99664.47;;;24.98;77.16
9035;BME280;4552;43.422;24.592;2023-06-14T18:33:24;99710.38;;;23.85;80.22
9035;BME280;4552;43.422;24.592;2023-06-14T18:35:51;99704.50;;;23.80;80.96
9035;BME280;4552;43.422;24.592;2023-06-14T18:38:18;99715.97;;;23.82;81.00
9035;BME280;4552;43.422;24.592;2023-06-14T18:40:58;99729.97;;;23.98;80.17
9035;BME280;4552;43.422;24.592;2023-06-14T18:43:26;99735.09;;;24.01;80.49
9035;BME280;4552;43.422;24.592;2023-06-14T18:45:57;99734.88;;;23.92;81.02
9035;BME280;4552;43.422;24.592;2023-06-14T19:15:21;99746.66;;;23.51;85.01
9035;BME280;4552;43.422;24.592;2023-06-14T20:29:28;99747.31;;;22.50;97.11
9035;BME280;4552;43.422;24.592;2023-06-14T20:31:54;99739.78;;;22.16;99.54
9035;BME280;4552;43.422;24.592;2023-06-14T20:34:21;99742.28;;;22.05;100.00
9035;BME280;4552;43.422;24.592;2023-06-14T20:36:48;99751.09;;;22.05;100.00
9035;BME280;4552;43.422;24.592;2023-06-14T20:39:18;99740.91;;;22.12;100.00
9035;BME280;4552;43.422;24.592;2023-06-14T20:42:12;99742.59;;;22.27;100.00
9035;BME280;4552;43.422;24.592;2023-06-14T20:44:52;99733.28;;;22.20;100.00
9035;BME280;4552;43.422;24.592;2023-06-14T20:47:20;99725.88;;;22.11;100.00
9035;BME280;4552;43.422;24.592;2023-06-14T20:49:47;99725.03;;;22.10;100.00
9035;BME280;4552;43.422;24.592;2023-06-14T20:52:15;99721.56;;;22.22;100.00
9035;BME280;4552;43.422;24.592;2023-06-14T20:54:47;99729.97;;;22.16;100.00
9035;BME280;4552;43.422;24.592;2023-06-14T20:57:36;99730.28;;;21.98;100.00
9035;BME280;4552;43.422;24.592;2023-06-14T21:00:14;99736.75;;;22.08;100.00
9035;BME280;4552;43.422;24.592;2023-06-14T21:02:53;99731.31;;;22.09;100.00
9035;BME280;4552;43.422;24.592;2023-06-14T21:05:22;99738.44;;;22.09;100.00
9035;BME280;4552;43.422;24.592;2023-06-14T21:07:49;99725.34;;;21.78;100.00
9035;BME280;4552;43.422;24.592;2023-06-14T21:10:29;99743.34;;;21.74;100.00
9035;BME280;4552;43.422;24.592;2023-06-14T21:12:56;99740.00;;;21.85;100.00
9035;BME280;4552;43.422;24.592;2023-06-14T21:15:36;99731.09;;;21.70;100.00
9035;BME280;4552;43.422;24.592;2023-06-14T22:45:23;99729.22;;;21.01;100.00
9035;BME280;4552;43.422;24.592;2023-06-14T22:47:58;99724.09;;;20.98;100.00
9035;BME280;4552;43.422;24.592;2023-06-14T22:50:27;99710.41;;;20.88;100.00
9035;BME280;4552;43.422;24.592;2023-06-14T22:52:54;99729.63;;;21.09;100.00
9035;BME280;4552;43.422;24.592;2023-06-14T22:55:22;99727.63;;;20.98;100.00
9035;BME280;4552;43.422;24.592;2023-06-14T22:57:51;99731.59;;;21.05;100.00
9035;BME280;4552;43.422;24.592;2023-06-14T23:00:23;99724.22;;;21.10;100.00
9035;BME280;4552;43.422;24.592;2023-06-14T23:03:01;99727.53;;;21.14;100.00
9035;BME280;4552;43.422;24.592;2023-06-14T23:05:28;99717.22;;;20.94;100.00
9035;BME280;4552;43.422;24.592;2023-06-14T23:07:55;99721.75;;;21.07;100.00
9035;BME280;4552;43.422;24.592;2023-06-14T23:10:23;99718.84;;;21.26;100.00
9035;BME280;4552;43.422;24.592;2023-06-14T23:12:49;99724.53;;;21.34;100.00
9035;BME280;4552;43.422;24.592;2023-06-14T23:15:29;99714.22;;;21.14;100.00
9035;BME280;4552;43.422;24.592;2023-06-14T23:17:57;99716.13;;;21.12;100.00
9035;BME280;4552;43.422;24.592;2023-06-14T23:20:26;99712.47;;;20.99;100.00
9035;BME280;4552;43.422;24.592;2023-06-14T23:22:54;99707.84;;;20.87;100.00
9035;BME280;4552;43.422;24.592;2023-06-14T23:25:21;99718.75;;;20.98;100.00
9035;BME280;4552;43.422;24.592;2023-06-14T23:27:49;99715.53;;;21.07;100.00
9035;BME280;4552;43.422;24.592;2023-06-14T23:30:17;99727.06;;;21.07;100.00
9035;BME280;4552;43.422;24.592;2023-06-14T23:32:46;99719.91;;;21.08;100.00
9035;BME280;4552;43.422;24.592;2023-06-14T23:35:15;99718.56;;;21.01;100.00
9035;BME280;4552;43.422;24.592;2023-06-14T23:37:59;99716.69;;;21.03;100.00
9035;BME280;4552;43.422;24.592;2023-06-14T23:40:27;99722.00;;;21.03;100.00
9035;BME280;4552;43.422;24.592;2023-06-14T23:42:54;99719.53;;;21.14;100.00
